createdAt,value
2019-03-13T00:01:03.042Z,55.50
2019-03-13T00:03:32.667Z,60.20
2019-03-13T00:06:02.922Z,56.50
2019-03-13T00:08:32.450Z,53.90
2019-03-13T00:11:01.893Z,63.17
2019-03-13T00:13:31.425Z,57.30
2019-03-13T00:16:01.344Z,56.93
2019-03-13T00:18:30.642Z,54.23
2019-03-13T00:20:59.900Z,59.30
2019-03-13T00:23:29.456Z,55.53
2019-03-13T00:25:58.887Z,59.10
2019-03-13T00:28:28.375Z,55.03
2019-03-13T00:30:57.886Z,62.43
2019-03-13T00:33:27.074Z,57.17
2019-03-13T00:35:56.479Z,65.60
2019-03-13T00:38:25.644Z,54.23
2019-03-13T00:40:55.191Z,66.60
2019-03-13T00:43:24.645Z,60.93
2019-03-13T00:45:54.077Z,60.53
2019-03-13T00:48:23.282Z,60.33
2019-03-13T00:50:52.692Z,62.40
2019-03-13T00:53:21.851Z,65.67
2019-03-13T00:55:51.343Z,56.60
2019-03-13T00:58:20.795Z,56.60
2019-03-13T01:00:51.720Z,61.43
2019-03-13T01:03:31.559Z,59.70
2019-03-13T01:06:05.177Z,58.67
2019-03-13T01:08:34.455Z,57.33
2019-03-13T01:11:03.735Z,60.87
2019-03-13T01:13:32.973Z,65.83
2019-03-13T01:16:02.152Z,61.90
2019-03-13T01:18:31.626Z,62.20
2019-03-13T01:21:01.096Z,63.77
2019-03-13T01:23:30.263Z,58.90
2019-03-13T01:25:59.715Z,60.10
2019-03-13T01:28:29.193Z,65.73
2019-03-13T01:31:03.872Z,58.33
2019-03-13T01:33:33.150Z,65.70
2019-03-13T01:36:04.306Z,61.93
2019-03-13T01:38:33.817Z,67.20
2019-03-13T01:41:03.373Z,64.20
2019-03-13T01:43:32.773Z,62.37
2019-03-13T01:46:02.287Z,63.33
2019-03-13T01:48:31.486Z,65.50
2019-03-13T01:51:00.887Z,64.93
2019-03-13T01:53:30.799Z,62.03
2019-03-13T01:56:00.409Z,63.90
2019-03-13T01:58:29.806Z,68.13
2019-03-13T02:01:00.151Z,70.13
2019-03-13T02:03:35.431Z,62.60
2019-03-13T02:06:05.016Z,68.47
2019-03-13T02:08:35.205Z,67.13
2019-03-13T02:11:04.835Z,70.43
2019-03-13T02:13:34.253Z,66.07
2019-03-13T02:16:04.628Z,73.03
2019-03-13T02:18:36.124Z,67.83
2019-03-13T02:21:05.619Z,79.47
2019-03-13T02:23:35.122Z,80.60
2019-03-13T02:26:04.728Z,76.53
2019-03-13T02:28:34.132Z,76.57
2019-03-13T02:31:09.444Z,81.00
2019-03-13T02:33:42.308Z,77.60
2019-03-13T02:36:11.649Z,88.57
2019-03-13T02:38:40.809Z,81.83
2019-03-13T02:41:11.144Z,82.17
2019-03-13T02:43:40.676Z,84.30
2019-03-13T02:46:17.917Z,76.30
2019-03-13T02:48:48.178Z,68.80
2019-03-13T02:51:17.379Z,83.00
2019-03-13T02:53:47.047Z,76.77
2019-03-13T02:56:16.299Z,74.17
2019-03-13T02:58:45.933Z,75.97
2019-03-13T03:01:19.988Z,76.17
2019-03-13T03:03:50.955Z,79.03
2019-03-13T03:06:20.455Z,78.87
2019-03-13T03:08:49.989Z,71.53
2019-03-13T03:11:19.139Z,78.37
2019-03-13T03:13:48.607Z,75.60
2019-03-13T03:16:18.165Z,82.03
2019-03-13T03:18:47.981Z,70.20
2019-03-13T03:21:17.484Z,68.57
2019-03-13T03:23:46.841Z,76.00
2019-03-13T03:26:16.104Z,65.37
2019-03-13T03:28:45.729Z,71.20
2019-03-13T03:31:15.127Z,69.43
2019-03-13T03:33:58.898Z,72.67
2019-03-13T03:36:29.338Z,64.80
2019-03-13T03:38:58.832Z,64.97
2019-03-13T03:41:29.015Z,72.73
2019-03-13T03:43:58.240Z,65.73
2019-03-13T03:46:27.834Z,63.00
2019-03-13T03:48:57.214Z,61.83
2019-03-13T03:51:26.390Z,63.40
2019-03-13T03:53:55.805Z,57.80
2019-03-13T03:56:24.973Z,63.37
2019-03-13T03:58:54.530Z,61.03
2019-03-13T04:01:23.913Z,59.70
2019-03-13T04:03:53.094Z,63.65
2019-03-13T04:06:23.248Z,61.43
2019-03-13T04:08:52.482Z,55.67
2019-03-13T04:11:21.938Z,64.97
2019-03-13T04:13:51.200Z,60.23
2019-03-13T04:16:21.357Z,60.93
2019-03-13T04:18:50.892Z,58.90
2019-03-13T04:21:21.217Z,58.00
2019-03-13T04:23:50.693Z,51.80
2019-03-13T04:26:19.988Z,50.20
2019-03-13T04:28:50.559Z,58.10
2019-03-13T04:31:20.020Z,52.33
2019-03-13T04:33:50.418Z,55.57
2019-03-13T04:36:19.898Z,53.67
2019-03-13T04:38:49.365Z,58.67
2019-03-13T04:41:18.531Z,46.93
2019-03-13T04:43:48.817Z,39.27
2019-03-13T04:46:18.273Z,44.77
2019-03-13T04:48:47.432Z,49.70
2019-03-13T04:51:16.936Z,44.43
2019-03-13T04:53:46.563Z,38.83
2019-03-13T04:56:15.906Z,44.87
2019-03-13T04:58:46.602Z,36.10
2019-03-13T05:01:15.782Z,37.47
2019-03-13T05:03:45.399Z,33.20
2019-03-13T05:06:18.143Z,43.17
2019-03-13T05:08:49.572Z,35.50
2019-03-13T05:11:18.725Z,37.53
2019-03-13T05:13:48.179Z,36.67
2019-03-13T05:16:17.347Z,33.67
2019-03-13T05:18:46.837Z,31.63
2019-03-13T05:21:16.293Z,32.50
2019-03-13T05:23:45.944Z,31.37
2019-03-13T05:26:16.120Z,34.53
2019-03-13T05:28:45.515Z,30.80
2019-03-13T05:31:14.699Z,31.67
2019-03-13T05:33:50.800Z,28.93
2019-03-13T05:36:20.271Z,23.90
2019-03-13T05:38:49.422Z,28.43
2019-03-13T05:41:18.912Z,31.33
2019-03-13T05:43:48.376Z,30.27
2019-03-13T05:46:17.528Z,31.17
2019-03-13T05:48:47.853Z,27.30
2019-03-13T05:51:17.319Z,29.60
2019-03-13T05:53:46.543Z,26.40
2019-03-13T05:56:15.918Z,28.53
2019-03-13T05:58:45.322Z,31.43
2019-03-13T06:01:14.539Z,27.20
2019-03-13T06:03:44.351Z,27.90
2019-03-13T06:06:20.477Z,29.77
2019-03-13T06:08:59.438Z,28.17
2019-03-13T06:11:30.558Z,28.20
2019-03-13T06:14:02.095Z,29.03
2019-03-13T06:16:31.275Z,27.67
2019-03-13T06:19:00.703Z,28.93
2019-03-13T06:21:29.876Z,22.90
2019-03-13T06:23:59.325Z,27.37
2019-03-13T06:26:28.812Z,25.57
2019-03-13T06:28:58.319Z,25.27
2019-03-13T06:31:28.254Z,25.03
2019-03-13T06:33:57.764Z,30.77
2019-03-13T06:36:27.239Z,26.37
2019-03-13T06:38:56.435Z,25.53
2019-03-13T06:41:25.854Z,29.83
2019-03-13T06:43:56.996Z,24.80
2019-03-13T06:46:26.194Z,24.97
2019-03-13T06:48:55.993Z,29.43
2019-03-13T06:51:25.163Z,26.17
2019-03-13T06:53:54.627Z,24.63
2019-03-13T06:56:24.096Z,27.73
2019-03-13T06:58:55.252Z,30.73
2019-03-13T07:01:32.418Z,27.43
2019-03-13T07:04:03.287Z,26.60
2019-03-13T07:06:36.965Z,26.83
2019-03-13T07:09:08.296Z,33.63
2019-03-13T07:11:42.212Z,26.70
2019-03-13T07:14:19.184Z,27.13
2019-03-13T07:16:50.107Z,28.00
2019-03-13T07:19:29.897Z,29.10
2019-03-13T07:22:06.749Z,30.90
2019-03-13T07:24:43.907Z,27.50
2019-03-13T07:27:26.505Z,25.23
2019-03-13T07:30:07.487Z,22.90
2019-03-13T07:32:44.296Z,24.83
2019-03-13T07:35:18.449Z,25.33
2019-03-13T07:37:49.609Z,25.63
2019-03-13T07:40:20.787Z,27.00
2019-03-13T07:42:51.875Z,22.90
2019-03-13T07:45:31.855Z,24.07
2019-03-13T07:48:05.727Z,26.70
2019-03-13T07:50:42.622Z,28.33
2019-03-13T07:53:15.764Z,23.73
2019-03-13T07:56:03.036Z,21.93
2019-03-13T07:58:50.062Z,28.27
2019-03-13T08:01:21.922Z,23.97
2019-03-13T08:03:55.591Z,27.73
2019-03-13T08:06:45.053Z,27.20
2019-03-13T08:09:18.787Z,29.27
2019-03-13T08:11:55.810Z,28.33
2019-03-13T08:14:26.745Z,26.97
2019-03-13T08:17:12.869Z,30.63
2019-03-13T08:19:47.852Z,35.87
2019-03-13T08:22:18.762Z,26.83
2019-03-13T08:25:08.027Z,35.57
2019-03-13T08:27:53.478Z,29.17
2019-03-13T08:30:24.364Z,31.60
2019-03-13T08:33:04.356Z,41.70
2019-03-13T08:35:37.974Z,29.97
2019-03-13T08:38:09.016Z,27.47
2019-03-13T08:40:40.110Z,27.43
2019-03-13T08:43:13.892Z,28.77
2019-03-13T08:45:44.743Z,21.87
2019-03-13T08:48:16.332Z,21.20
2019-03-13T08:50:47.613Z,24.60
2019-03-13T08:53:18.642Z,32.07
2019-03-13T08:55:52.659Z,26.03
2019-03-13T08:58:23.779Z,25.63
2019-03-13T09:01:07.042Z,24.03
2019-03-13T09:03:37.910Z,20.83
2019-03-13T09:06:14.680Z,20.33
2019-03-13T09:09:01.599Z,21.37
2019-03-13T09:11:34.734Z,19.33
2019-03-13T09:14:05.866Z,17.20
2019-03-13T09:16:53.382Z,21.67
2019-03-13T09:19:40.711Z,14.63
2019-03-13T09:22:12.486Z,15.90
2019-03-13T09:24:52.435Z,19.50
2019-03-13T09:27:23.406Z,21.63
2019-03-13T09:29:57.250Z,21.03
2019-03-13T09:32:28.097Z,22.40
2019-03-13T09:35:05.155Z,21.50
2019-03-13T09:37:36.111Z,21.83
2019-03-13T09:40:10.874Z,24.87
2019-03-13T09:42:42.091Z,30.30
2019-03-13T09:45:15.944Z,18.53
2019-03-13T09:48:01.794Z,20.43
2019-03-13T09:50:33.108Z,20.07
2019-03-13T09:53:03.970Z,17.53
2019-03-13T09:55:37.842Z,23.60
2019-03-13T09:58:13.010Z,20.37
2019-03-13T10:00:46.588Z,18.93
2019-03-13T10:03:18.683Z,19.27
2019-03-13T10:06:04.761Z,20.83
2019-03-13T10:08:52.159Z,20.37
2019-03-13T10:11:28.991Z,20.03
2019-03-13T10:14:16.522Z,21.47
2019-03-13T10:17:10.662Z,18.70
2019-03-13T10:19:44.051Z,16.23
2019-03-13T10:22:19.197Z,19.00
2019-03-13T10:25:06.684Z,17.83
2019-03-13T10:27:40.756Z,17.17
2019-03-13T10:30:29.371Z,19.70
2019-03-13T10:33:00.451Z,20.70
2019-03-13T10:35:31.627Z,22.17
2019-03-13T10:38:13.063Z,23.67
2019-03-13T10:40:50.087Z,24.80
2019-03-13T10:43:20.981Z,23.53
2019-03-13T10:45:51.781Z,22.70
2019-03-13T10:48:28.597Z,23.53
2019-03-13T10:50:59.405Z,23.07
2019-03-13T10:53:48.331Z,25.73
2019-03-13T10:56:19.250Z,25.50
2019-03-13T10:58:57.068Z,28.70
2019-03-13T11:01:41.607Z,25.10
2019-03-13T11:04:13.581Z,24.83
2019-03-13T11:06:55.225Z,24.67
2019-03-13T11:09:24.060Z,21.30
2019-03-13T11:11:55.154Z,23.27
2019-03-13T11:14:27.178Z,23.30
2019-03-13T11:16:58.311Z,25.97
2019-03-13T11:19:31.864Z,26.07
2019-03-13T11:22:05.473Z,23.93
2019-03-13T11:24:39.393Z,24.37
2019-03-13T11:27:11.526Z,29.73
2019-03-13T11:29:45.375Z,26.50
2019-03-13T11:32:19.200Z,27.53
2019-03-13T11:34:53.238Z,25.13
2019-03-13T11:37:27.354Z,32.00
2019-03-13T11:40:10.131Z,25.50
2019-03-13T11:42:50.357Z,24.17
2019-03-13T11:45:21.312Z,38.17
2019-03-13T11:47:58.067Z,27.13
2019-03-13T11:50:45.432Z,25.80
2019-03-13T11:53:19.171Z,24.80
2019-03-13T11:55:52.345Z,23.23
2019-03-13T11:58:32.337Z,22.53
2019-03-13T12:01:03.558Z,23.50
2019-03-13T12:03:49.481Z,21.90
2019-03-13T12:06:24.016Z,20.10
2019-03-13T12:09:21.115Z,22.53
2019-03-13T12:12:13.740Z,20.60
2019-03-13T12:14:50.029Z,22.53
2019-03-13T12:17:32.731Z,20.83
2019-03-13T12:20:15.847Z,22.30
2019-03-13T12:22:48.998Z,22.87
2019-03-13T12:25:36.474Z,20.47
2019-03-13T12:28:07.574Z,22.57
2019-03-13T12:30:47.147Z,21.43
2019-03-13T12:33:20.566Z,25.70
2019-03-13T12:35:51.700Z,24.30
2019-03-13T12:38:34.627Z,29.53
2019-03-13T12:41:17.437Z,25.83
2019-03-13T12:43:57.398Z,32.07
2019-03-13T12:46:45.357Z,28.53
2019-03-13T12:49:17.341Z,26.20
2019-03-13T12:51:54.770Z,21.23
2019-03-13T12:54:41.955Z,24.93
2019-03-13T12:57:12.922Z,23.53
2019-03-13T12:59:52.553Z,25.97
2019-03-13T13:02:26.051Z,25.37
2019-03-13T13:05:03.773Z,19.47
2019-03-13T13:07:50.886Z,20.40
2019-03-13T13:10:24.806Z,18.90
2019-03-13T13:12:58.726Z,19.77
2019-03-13T13:15:29.948Z,25.43
2019-03-13T13:18:03.550Z,20.97
2019-03-13T13:20:32.764Z,19.23
2019-03-13T13:23:02.479Z,20.97
2019-03-13T13:25:32.026Z,17.87
2019-03-13T13:28:01.501Z,17.07
2019-03-13T13:30:31.014Z,18.73
2019-03-13T13:33:00.500Z,21.33
2019-03-13T13:35:29.951Z,19.90
2019-03-13T13:37:59.178Z,17.10
2019-03-13T13:40:28.588Z,15.93
2019-03-13T13:42:58.061Z,16.67
2019-03-13T13:45:33.535Z,13.20
2019-03-13T13:48:03.229Z,15.53
2019-03-13T13:50:32.720Z,10.33
2019-03-13T13:53:01.888Z,18.53
2019-03-13T13:55:31.419Z,14.13
2019-03-13T13:58:00.838Z,10.33
2019-03-13T14:00:30.054Z,12.67
2019-03-13T14:02:59.459Z,13.70
2019-03-13T14:05:28.611Z,10.50
2019-03-13T14:07:58.021Z,13.43
2019-03-13T14:10:27.216Z,11.10
2019-03-13T14:12:56.626Z,14.27
2019-03-13T14:15:26.127Z,9.47
2019-03-13T14:17:55.691Z,8.03
2019-03-13T14:20:25.125Z,15.30
2019-03-13T14:22:54.281Z,10.70
2019-03-13T14:25:23.456Z,12.17
2019-03-13T14:27:52.835Z,10.80
2019-03-13T14:30:23.922Z,9.93
2019-03-13T14:32:53.112Z,19.70
2019-03-13T14:35:22.578Z,15.47
2019-03-13T14:37:51.735Z,16.17
2019-03-13T14:40:21.560Z,17.93
2019-03-13T14:42:51.692Z,17.57
2019-03-13T14:45:21.053Z,16.77
2019-03-13T14:47:50.236Z,14.70
2019-03-13T14:50:21.224Z,11.03
2019-03-13T14:52:50.382Z,9.47
2019-03-13T14:55:19.695Z,12.83
2019-03-13T14:57:48.845Z,11.13
2019-03-13T15:00:23.368Z,13.50
2019-03-13T15:02:52.803Z,11.47
2019-03-13T15:05:22.028Z,11.70
2019-03-13T15:07:51.207Z,8.57
2019-03-13T15:10:21.775Z,13.00
2019-03-13T15:12:51.027Z,11.17
2019-03-13T15:15:21.701Z,17.83
2019-03-13T15:17:53.123Z,16.90
2019-03-13T15:20:29.212Z,8.33
2019-03-13T15:22:58.416Z,18.13
2019-03-13T15:25:28.332Z,13.90
2019-03-13T15:27:57.553Z,13.93
2019-03-13T15:30:28.894Z,15.97
2019-03-13T15:32:58.270Z,17.10
2019-03-13T15:35:27.564Z,16.23
2019-03-13T15:37:57.321Z,15.60
2019-03-13T15:40:26.480Z,18.17
2019-03-13T15:42:55.627Z,14.73
2019-03-13T15:45:27.345Z,22.93
2019-03-13T15:47:56.575Z,17.93
2019-03-13T15:50:25.770Z,31.53
2019-03-13T15:52:57.090Z,34.77
2019-03-13T15:55:26.398Z,22.37
2019-03-13T15:57:55.565Z,19.33
2019-03-13T16:00:26.694Z,25.07
2019-03-13T16:02:56.293Z,25.40
2019-03-13T16:05:25.743Z,28.00
2019-03-13T16:07:55.199Z,18.97
2019-03-13T16:10:24.677Z,14.07
2019-03-13T16:12:55.816Z,17.43
2019-03-13T16:15:28.594Z,20.77
2019-03-13T16:17:57.752Z,16.70
2019-03-13T16:20:27.208Z,15.97
2019-03-13T16:23:00.432Z,17.10
2019-03-13T16:25:30.806Z,14.83
2019-03-13T16:28:00.325Z,14.73
2019-03-13T16:30:32.059Z,16.07
2019-03-13T16:33:01.434Z,13.33
2019-03-13T16:35:33.958Z,14.77
2019-03-13T16:38:03.263Z,15.83
2019-03-13T16:40:32.663Z,21.03
2019-03-13T16:43:01.899Z,19.20
2019-03-13T16:45:31.301Z,19.93
2019-03-13T16:48:00.848Z,19.40
2019-03-13T16:50:35.149Z,12.97
2019-03-13T16:53:05.588Z,16.37
2019-03-13T17:51:07.255Z,40.33
2019-03-13T17:53:36.574Z,38.03
2019-03-13T17:56:06.855Z,46.30
2019-03-13T17:58:36.114Z,48.07
2019-03-13T18:01:05.725Z,53.00
2019-03-13T18:03:35.091Z,40.73
2019-03-13T18:06:05.450Z,50.30
2019-03-13T18:08:34.923Z,44.90
2019-03-13T18:11:04.171Z,48.43
2019-03-13T18:13:33.561Z,48.97
2019-03-13T18:16:05.567Z,47.50
2019-03-13T18:18:35.003Z,51.87
2019-03-13T18:21:04.665Z,48.47
2019-03-13T18:23:34.079Z,53.43
2019-03-13T18:26:06.709Z,51.57
2019-03-13T18:28:35.974Z,44.50
2019-03-13T18:31:05.532Z,49.73
2019-03-13T18:33:34.918Z,51.13
2019-03-13T18:36:07.443Z,50.13
2019-03-13T18:38:36.856Z,54.53
2019-03-13T18:41:09.564Z,49.53
2019-03-13T18:43:40.351Z,54.00
2019-03-13T18:46:10.609Z,49.60
2019-03-13T18:48:39.808Z,54.17
2019-03-13T18:51:09.210Z,51.07
2019-03-13T18:53:38.441Z,55.40
2019-03-13T18:56:07.857Z,59.47
2019-03-13T18:58:37.305Z,49.10
2019-03-13T19:01:06.751Z,55.50
2019-03-13T19:03:36.026Z,56.83
2019-03-13T19:06:05.563Z,75.87
2019-03-13T19:08:34.922Z,63.43
2019-03-13T19:11:04.266Z,61.13
2019-03-13T19:13:33.698Z,61.70
2019-03-13T19:16:03.988Z,60.27
2019-03-13T19:18:43.824Z,59.87
2019-03-13T19:21:17.701Z,60.83
2019-03-13T19:23:47.932Z,56.57
2019-03-13T19:26:17.146Z,53.83
2019-03-13T19:28:46.575Z,54.70
2019-03-13T19:31:16.036Z,59.43
2019-03-13T19:33:45.785Z,60.30
2019-03-13T19:36:15.153Z,61.30
2019-03-13T19:38:46.695Z,63.17
2019-03-13T19:41:16.153Z,68.27
2019-03-13T19:43:47.766Z,64.63
2019-03-13T19:46:18.059Z,65.23
2019-03-13T19:48:48.618Z,64.80
2019-03-13T19:51:17.837Z,60.83
2019-03-13T19:53:49.010Z,62.47
2019-03-13T19:56:18.586Z,56.37
2019-03-13T19:58:48.837Z,59.10
2019-03-13T20:01:18.298Z,60.90
2019-03-13T20:03:55.182Z,69.47
2019-03-13T20:06:20.579Z,65.43
2019-03-13T20:08:49.736Z,59.30
2019-03-13T20:11:19.374Z,62.07
2019-03-13T20:13:48.706Z,54.70
2019-03-13T20:16:17.874Z,56.73
2019-03-13T20:18:49.844Z,54.10
2019-03-13T20:21:18.562Z,54.00
2019-03-13T20:23:47.953Z,57.53
2019-03-13T20:26:17.219Z,57.33
2019-03-13T20:28:46.926Z,54.70
2019-03-13T20:31:16.163Z,52.50
2019-03-13T20:33:45.874Z,53.67
2019-03-13T20:36:15.122Z,57.80
2019-03-13T20:38:47.163Z,57.47
2019-03-13T20:41:15.896Z,56.77
2019-03-13T20:43:45.912Z,50.90
2019-03-13T20:46:15.613Z,47.50
2019-03-13T20:48:45.373Z,55.87
2019-03-13T20:51:14.615Z,51.67
2019-03-13T20:53:44.120Z,51.03
2019-03-13T20:56:13.612Z,57.47
2019-03-13T20:58:43.137Z,57.20
2019-03-13T21:01:12.654Z,53.90
2019-03-13T21:03:42.106Z,54.20
2019-03-13T21:06:11.648Z,49.57
2019-03-13T21:08:41.107Z,51.37
2019-03-13T21:11:11.463Z,54.20
2019-03-13T21:13:40.914Z,48.93
2019-03-13T21:16:10.117Z,51.13
2019-03-13T21:18:39.550Z,61.13
2019-03-13T21:21:09.034Z,50.20
2019-03-13T21:23:38.526Z,52.67
2019-03-13T21:26:07.846Z,52.67
2019-03-13T21:28:37.129Z,57.07
2019-03-13T21:31:06.373Z,59.97
2019-03-13T21:33:35.834Z,60.37
2019-03-13T21:36:05.256Z,55.87
2019-03-13T21:38:34.837Z,52.97
2019-03-13T21:41:06.349Z,52.57
2019-03-13T21:43:35.798Z,52.03
2019-03-13T21:46:06.714Z,53.70
2019-03-13T21:48:36.099Z,58.20
2019-03-13T21:51:06.394Z,55.73
2019-03-13T21:53:35.880Z,54.80
2019-03-13T21:56:05.151Z,49.53
2019-03-13T21:58:34.495Z,51.60
2019-03-13T22:01:04.064Z,52.27
2019-03-13T22:03:33.505Z,54.50
2019-03-13T22:06:02.975Z,54.30
2019-03-13T22:08:32.159Z,52.77
2019-03-13T22:11:01.646Z,55.37
2019-03-13T22:13:31.142Z,58.87
2019-03-13T22:16:00.598Z,59.90
2019-03-13T22:18:32.199Z,69.23
2019-03-13T22:21:01.676Z,52.43
2019-03-13T22:23:31.142Z,59.23
2019-03-13T22:26:00.318Z,58.73
2019-03-13T22:28:29.754Z,61.83
2019-03-13T22:30:58.911Z,56.27
2019-03-13T22:33:29.218Z,64.33
2019-03-13T22:35:58.686Z,55.60
2019-03-13T22:38:27.857Z,55.07
2019-03-13T22:40:57.360Z,57.40
2019-03-13T22:43:26.794Z,59.43
2019-03-13T22:45:55.969Z,59.50
2019-03-13T22:48:25.513Z,58.80
2019-03-13T22:50:54.910Z,57.47
2019-03-13T22:53:24.149Z,51.90
2019-03-13T22:55:53.607Z,55.17
2019-03-13T22:58:24.721Z,58.07
2019-03-13T23:01:01.106Z,55.53
2019-03-13T23:03:31.583Z,54.00
2019-03-13T23:06:01.837Z,58.50
2019-03-13T23:08:31.499Z,61.93
2019-03-13T23:11:01.313Z,51.80
2019-03-13T23:13:32.835Z,56.30
2019-03-13T23:16:02.351Z,56.80
2019-03-13T23:18:31.772Z,55.77
2019-03-13T23:21:01.254Z,53.20
2019-03-13T23:23:30.884Z,46.27
2019-03-13T23:26:00.323Z,56.67
2019-03-13T23:28:29.775Z,57.27
2019-03-13T23:30:59.132Z,48.27
2019-03-13T23:33:29.599Z,57.03
2019-03-13T23:35:58.755Z,53.02
2019-03-13T23:38:28.335Z,57.10
2019-03-13T23:40:58.131Z,56.23
2019-03-13T23:43:27.768Z,53.00
2019-03-13T23:45:57.168Z,49.97
2019-03-13T23:48:26.633Z,49.73
2019-03-13T23:51:01.904Z,51.13
2019-03-13T23:53:31.391Z,45.93
2019-03-13T23:56:00.893Z,49.20
2019-03-13T23:58:36.173Z,49.60
